Time,TemperatureF,DewpointF,PressureIn,WindDirection,WindDirectionDegrees,WindSpeedMPH,WindSpeedGustMPH,Humidity,HourlyPrecipIn,Conditions,Clouds,dailyrainin,SoftwareType,DateUTC
2013-02-10 00:00:00,20.7,19.0,30.22,ENE,65,1.0,4.0,93,0.00,,,0.09,Wunderground v.1.15,2013-02-10 05:00:00,
2013-02-10 00:06:00,20.7,19.0,30.22,ENE,67,1.0,2.0,93,0.00,,,0.09,Wunderground v.1.15,2013-02-10 05:06:00,
2013-02-10 00:12:00,20.8,19.1,30.21,ENE,67,0.0,1.0,93,0.00,,,0.00,Wunderground v.1.15,2013-02-10 05:12:00,
2013-02-10 00:17:00,20.8,19.1,30.21,ENE,67,4.0,4.0,93,0.00,,,0.00,Wunderground v.1.15,2013-02-10 05:17:00,
2013-02-10 00:23:00,20.7,19.0,30.21,ENE,67,0.0,2.0,93,0.00,,,0.00,Wunderground v.1.15,2013-02-10 05:23:00,
2013-02-10 00:28:00,20.7,19.0,30.20,ENE,65,1.0,2.0,93,0.00,,,0.00,Wunderground v.1.15,2013-02-10 05:28:00,
2013-02-10 00:34:00,20.8,19.1,30.20,NE,52,0.0,4.0,93,0.00,,,0.00,Wunderground v.1.15,2013-02-10 05:34:00,
2013-02-10 00:39:00,20.7,19.0,30.20,ENE,65,1.0,4.0,93,0.00,,,0.00,Wunderground v.1.15,2013-02-10 05:39:00,
2013-02-10 00:45:00,20.7,19.2,30.20,ENE,57,0.0,1.0,94,0.00,,,0.00,Wunderground v.1.15,2013-02-10 05:45:00,
2013-02-10 00:50:00,20.7,19.2,30.20,East,92,1.0,1.0,94,0.00,,,0.00,Wunderground v.1.15,2013-02-10 05:50:00,
2013-02-10 00:56:00,20.7,19.2,30.19,ENE,76,0.0,4.0,94,0.00,,,0.00,Wunderground v.1.15,2013-02-10 05:56:00,
2013-02-10 01:01:00,20.8,19.3,30.19,ENE,76,0.0,0.0,94,0.00,,,0.00,Wunderground v.1.15,2013-02-10 06:01:00,
2013-02-10 01:07:00,20.8,19.3,30.19,NE,43,1.0,1.0,94,0.00,,,0.00,Wunderground v.1.15,2013-02-10 06:07:00,
2013-02-10 01:12:00,20.9,19.4,30.19,NE,40,1.0,1.0,94,0.00,,,0.00,Wunderground v.1.15,2013-02-10 06:12:00,
2013-02-10 01:18:00,21.0,19.5,30.19,NE,35,1.0,1.0,94,0.00,,,0.00,Wunderground v.1.15,2013-02-10 06:18:00,
2013-02-10 01:24:00,21.1,19.6,30.18,NE,36,0.0,1.0,94,0.00,,,0.00,Wunderground v.1.15,2013-02-10 06:24:00,
2013-02-10 01:29:00,21.0,19.5,30.18,NE,44,0.0,2.0,94,0.00,,,0.00,Wunderground v.1.15,2013-02-10 06:29:00,
2013-02-10 01:35:00,20.9,19.4,30.18,NE,48,3.0,3.0,94,0.00,,,0.00,Wunderground v.1.15,2013-02-10 06:35:00,
2013-02-10 01:40:00,20.9,19.4,30.17,North,350,1.0,3.0,94,0.00,,,0.00,Wunderground v.1.15,2013-02-10 06:40:00,
2013-02-10 01:46:00,20.8,19.1,30.17,North,360,0.0,1.0,93,0.00,,,0.00,Wunderground v.1.15,2013-02-10 06:46:00,
2013-02-10 01:51:00,20.7,19.0,30.17,ENE,75,0.0,0.0,93,0.00,,,0.00,Wunderground v.1.15,2013-02-10 06:51:00,
2013-02-10 01:57:00,20.6,18.9,30.17,ENE,75,0.0,1.0,93,0.00,,,0.00,Wunderground v.1.15,2013-02-10 06:57:00,
2013-02-10 02:02:00,20.5,18.8,30.17,ENE,74,0.0,1.0,93,0.00,,,0.00,Wunderground v.1.15,2013-02-10 07:02:00,
2013-02-10 02:07:00,20.4,18.7,30.17,ENE,74,0.0,1.0,93,0.00,,,0.00,Wunderground v.1.15,2013-02-10 07:07:00,
2013-02-10 02:12:00,20.3,18.6,30.16,ENE,74,0.0,1.0,93,0.00,,,0.00,Wunderground v.1.15,2013-02-10 07:12:00,
2013-02-10 02:17:00,20.2,18.5,30.16,East,84,0.0,2.0,93,0.00,,,0.00,Wunderground v.1.15,2013-02-10 07:17:00,
2013-02-10 02:22:00,20.2,18.5,30.16,East,84,1.0,1.0,93,0.00,,,0.00,Wunderground v.1.15,2013-02-10 07:22:00,
2013-02-10 02:27:00,20.2,18.5,30.16,NE,50,2.0,2.0,93,0.00,,,0.00,Wunderground v.1.15,2013-02-10 07:27:00,
2013-02-10 02:32:00,20.2,18.5,30.16,NE,51,0.0,4.0,93,0.00,,,0.00,Wunderground v.1.15,2013-02-10 07:32:00,
2013-02-10 02:37:00,20.2,18.5,30.16,NE,36,0.0,4.0,93,0.00,,,0.00,Wunderground v.1.15,2013-02-10 07:37:00,
2013-02-10 02:42:00,20.1,18.4,30.16,NE,36,0.0,1.0,93,0.00,,,0.00,Wunderground v.1.15,2013-02-10 07:42:00,
2013-02-10 02:47:00,20.1,18.4,30.16,NE,36,0.0,2.0,93,0.00,,,0.00,Wunderground v.1.15,2013-02-10 07:47:00,
2013-02-10 02:52:00,20.1,18.4,30.16,NE,36,0.0,0.0,93,0.00,,,0.00,Wunderground v.1.15,2013-02-10 07:52:00,
2013-02-10 02:57:00,20.1,18.4,30.15,ESE,109,0.0,2.0,93,0.00,,,0.00,Wunderground v.1.15,2013-02-10 07:57:00,
2013-02-10 03:02:00,20.1,18.4,30.15,ESE,103,0.0,1.0,93,0.00,,,0.00,Wunderground v.1.15,2013-02-10 08:02:00,
2013-02-10 03:07:00,20.2,18.5,30.15,East,82,0.0,2.0,93,0.00,,,0.00,Wunderground v.1.15,2013-02-10 08:07:00,
2013-02-10 03:12:00,20.2,18.5,30.15,East,82,0.0,1.0,93,0.00,,,0.00,Wunderground v.1.15,2013-02-10 08:12:00,
2013-02-10 03:17:00,20.2,18.5,30.15,East,82,1.0,2.0,93,0.00,,,0.00,Wunderground v.1.15,2013-02-10 08:17:00,
2013-02-10 03:22:00,20.3,18.6,30.15,East,82,0.0,0.0,93,0.00,,,0.00,Wunderground v.1.15,2013-02-10 08:22:00,
2013-02-10 03:27:00,20.4,18.7,30.15,East,82,0.0,1.0,93,0.00,,,0.00,Wunderground v.1.15,2013-02-10 08:27:00,
2013-02-10 03:32:00,20.6,18.9,30.15,East,80,0.0,0.0,93,0.00,,,0.00,Wunderground v.1.15,2013-02-10 08:32:00,
2013-02-10 03:37:00,20.7,19.0,30.15,East,81,0.0,1.0,93,0.00,,,0.00,Wunderground v.1.15,2013-02-10 08:37:00,
2013-02-10 03:42:00,20.9,19.2,30.14,East,80,0.0,2.0,93,0.00,,,0.00,Wunderground v.1.15,2013-02-10 08:42:00,
2013-02-10 03:47:00,21.1,19.4,30.14,East,80,0.0,2.0,93,0.00,,,0.00,Wunderground v.1.15,2013-02-10 08:47:00,
2013-02-10 03:52:00,21.3,19.6,30.14,East,81,1.0,1.0,93,0.00,,,0.00,Wunderground v.1.15,2013-02-10 08:52:00,
2013-02-10 03:57:00,21.4,19.7,30.14,East,80,0.0,2.0,93,0.00,,,0.00,Wunderground v.1.15,2013-02-10 08:57:00,
2013-02-10 04:02:00,21.5,19.8,30.14,East,87,0.0,1.0,93,0.00,,,0.00,Wunderground v.1.15,2013-02-10 09:02:00,
2013-02-10 04:07:00,21.6,19.9,30.14,East,87,0.0,1.0,93,0.00,,,0.00,Wunderground v.1.15,2013-02-10 09:07:00,
2013-02-10 04:12:00,21.6,19.9,30.14,East,86,0.0,2.0,93,0.00,,,0.00,Wunderground v.1.15,2013-02-10 09:12:00,
2013-02-10 04:17:00,21.6,19.6,30.14,East,86,0.0,2.0,92,0.00,,,0.00,Wunderground v.1.15,2013-02-10 09:17:00,
2013-02-10 04:22:00,21.7,19.7,30.14,East,86,0.0,1.0,92,0.00,,,0.00,Wunderground v.1.15,2013-02-10 09:22:00,
2013-02-10 04:27:00,21.7,19.7,30.14,East,86,0.0,1.0,92,0.00,,,0.00,Wunderground v.1.15,2013-02-10 09:27:00,
2013-02-10 04:32:00,21.8,19.8,30.14,East,86,1.0,1.0,92,0.00,,,0.00,Wunderground v.1.15,2013-02-10 09:32:00,
2013-02-10 04:37:00,21.9,19.9,30.14,East,86,1.0,4.0,92,0.00,,,0.00,Wunderground v.1.15,2013-02-10 09:37:00,
2013-02-10 04:42:00,22.0,20.0,30.14,East,86,0.0,2.0,92,0.00,,,0.00,Wunderground v.1.15,2013-02-10 09:42:00,
2013-02-10 04:47:00,22.2,20.2,30.14,East,84,0.0,2.0,92,0.00,,,0.00,Wunderground v.1.15,2013-02-10 09:47:00,
2013-02-10 04:52:00,22.3,20.3,30.14,East,80,0.0,1.0,92,0.00,,,0.00,Wunderground v.1.15,2013-02-10 09:52:00,
2013-02-10 04:57:00,22.3,20.3,30.14,ENE,76,1.0,2.0,92,0.00,,,0.00,Wunderground v.1.15,2013-02-10 09:57:00,
2013-02-10 05:02:00,22.3,20.1,30.14,ENE,76,0.0,2.0,91,0.00,,,0.00,Wunderground v.1.15,2013-02-10 10:02:00,
2013-02-10 05:07:00,22.4,20.2,30.14,ENE,75,0.0,2.0,91,0.00,,,0.00,Wunderground v.1.15,2013-02-10 10:07:00,
2013-02-10 05:12:00,22.6,20.4,30.14,ENE,74,0.0,1.0,91,0.00,,,0.00,Wunderground v.1.15,2013-02-10 10:12:00,
2013-02-10 05:17:00,22.8,20.6,30.14,East,88,1.0,2.0,91,0.00,,,0.00,Wunderground v.1.15,2013-02-10 10:17:00,
2013-02-10 05:22:00,23.0,20.8,30.14,East,88,1.0,4.0,91,0.00,,,0.00,Wunderground v.1.15,2013-02-10 10:22:00,
2013-02-10 05:27:00,23.3,20.8,30.14,NE,56,2.0,4.0,90,0.00,,,0.00,Wunderground v.1.15,2013-02-10 10:27:00,
2013-02-10 05:32:00,23.4,20.9,30.14,NE,42,2.0,2.0,90,0.00,,,0.00,Wunderground v.1.15,2013-02-10 10:32:00,
2013-02-10 05:37:00,23.5,20.7,30.14,ESE,123,3.0,3.0,89,0.00,,,0.00,Wunderground v.1.15,2013-02-10 10:37:00,
2013-02-10 05:42:00,23.6,20.8,30.14,ENE,73,1.0,4.0,89,0.00,,,0.00,Wunderground v.1.15,2013-02-10 10:42:00,
2013-02-10 05:47:00,23.6,20.6,30.14,NE,48,1.0,4.0,88,0.00,,,0.00,Wunderground v.1.15,2013-02-10 10:47:00,
2013-02-10 05:52:00,23.6,20.6,30.14,NE,51,0.0,1.0,88,0.00,,,0.00,Wunderground v.1.15,2013-02-10 10:52:00,
2013-02-10 05:57:00,23.5,20.5,30.15,North,355,0.0,4.0,88,0.00,,,0.00,Wunderground v.1.15,2013-02-10 10:57:00,
2013-02-10 06:02:00,23.5,20.5,30.15,North,355,0.0,1.0,88,0.00,,,0.00,Wunderground v.1.15,2013-02-10 11:02:00,
2013-02-10 06:07:00,23.3,20.3,30.15,North,10,0.0,2.0,88,0.00,,,0.00,Wunderground v.1.15,2013-02-10 11:07:00,
2013-02-10 06:12:00,23.2,20.2,30.15,North,10,0.0,1.0,88,0.00,,,0.00,Wunderground v.1.15,2013-02-10 11:12:00,
2013-02-10 06:17:00,23.1,20.1,30.15,North,10,0.0,3.0,88,0.00,,,0.00,Wunderground v.1.15,2013-02-10 11:17:00,
2013-02-10 06:22:00,23.1,20.1,30.15,North,10,0.0,2.0,88,0.00,,,0.00,Wunderground v.1.15,2013-02-10 11:22:00,
2013-02-10 06:27:00,23.1,20.1,30.15,North,5,0.0,3.0,88,0.00,,,0.00,Wunderground v.1.15,2013-02-10 11:27:00,
2013-02-10 06:32:00,23.0,20.0,30.15,North,360,0.0,2.0,88,0.00,,,0.00,Wunderground v.1.15,2013-02-10 11:32:00,
2013-02-10 06:37:00,23.0,20.0,30.15,North,11,0.0,3.0,88,0.00,,,0.00,Wunderground v.1.15,2013-02-10 11:37:00,
2013-02-10 06:42:00,23.0,20.0,30.15,NNE,32,2.0,2.0,88,0.00,,,0.00,Wunderground v.1.15,2013-02-10 11:42:00,
2013-02-10 06:47:00,23.1,20.1,30.15,ENE,63,1.0,4.0,88,0.00,,,0.00,Wunderground v.1.15,2013-02-10 11:47:00,
2013-02-10 06:52:00,23.1,20.1,30.15,ENE,63,0.0,1.0,88,0.00,,,0.00,Wunderground v.1.15,2013-02-10 11:52:00,
2013-02-10 06:57:00,23.0,20.0,30.14,ENE,63,0.0,2.0,88,0.00,,,0.00,Wunderground v.1.15,2013-02-10 11:57:00,
2013-02-10 07:02:00,23.0,20.0,30.14,NE,48,0.0,1.0,88,0.00,,,0.00,Wunderground v.1.15,2013-02-10 12:02:00,
2013-02-10 07:07:00,22.9,19.6,30.14,NE,48,0.0,2.0,87,0.00,,,0.00,Wunderground v.1.15,2013-02-10 12:07:00,
2013-02-10 07:12:00,22.9,19.9,30.14,NE,55,1.0,4.0,88,0.00,,,0.00,Wunderground v.1.15,2013-02-10 12:12:00,
2013-02-10 07:17:00,22.8,19.8,30.14,NE,55,0.0,4.0,88,0.00,,,0.00,Wunderground v.1.15,2013-02-10 12:17:00,
2013-02-10 07:22:00,22.8,19.5,30.14,NE,55,0.0,2.0,87,0.00,,,0.00,Wunderground v.1.15,2013-02-10 12:22:00,
2013-02-10 07:27:00,22.7,19.7,30.13,ESE,114,2.0,2.0,88,0.00,,,0.00,Wunderground v.1.15,2013-02-10 12:27:00,
2013-02-10 07:32:00,22.7,19.7,30.13,East,95,0.0,2.0,88,0.00,,,0.00,Wunderground v.1.15,2013-02-10 12:32:00,
2013-02-10 07:37:00,22.7,19.7,30.13,East,94,1.0,3.0,88,0.00,,,0.00,Wunderground v.1.15,2013-02-10 12:37:00,
2013-02-10 07:42:00,22.8,19.8,30.12,East,92,0.0,4.0,88,0.00,,,0.00,Wunderground v.1.15,2013-02-10 12:42:00,
2013-02-10 07:47:00,22.8,19.5,30.12,East,92,0.0,4.0,87,0.00,,,0.00,Wunderground v.1.15,2013-02-10 12:47:00,
2013-02-10 07:52:00,22.9,19.6,30.12,East,92,0.0,2.0,87,0.00,,,0.00,Wunderground v.1.15,2013-02-10 12:52:00,
2013-02-10 07:57:00,22.9,19.6,30.10,East,92,0.0,3.0,87,0.00,,,0.00,Wunderground v.1.15,2013-02-10 12:57:00,
2013-02-10 08:02:00,22.9,19.6,30.10,East,91,0.0,3.0,87,0.00,,,0.00,Wunderground v.1.15,2013-02-10 13:02:00,
2013-02-10 08:07:00,23.1,19.8,30.10,SE,139,1.0,3.0,87,0.00,,,0.00,Wunderground v.1.15,2013-02-10 13:07:00,
2013-02-10 08:12:00,23.4,20.1,30.10,ESE,119,0.0,2.0,87,0.00,,,0.00,Wunderground v.1.15,2013-02-10 13:12:00,
2013-02-10 08:17:00,23.7,20.4,30.10,ENE,70,1.0,2.0,87,0.00,,,0.00,Wunderground v.1.15,2013-02-10 13:17:00,
2013-02-10 08:22:00,23.9,20.6,30.10,East,84,0.0,2.0,87,0.00,,,0.00,Wunderground v.1.15,2013-02-10 13:22:00,
2013-02-10 08:27:00,24.0,20.7,30.09,East,80,4.0,4.0,87,0.00,,,0.00,Wunderground v.1.15,2013-02-10 13:27:00,
2013-02-10 08:32:00,24.2,20.9,30.09,NNE,17,0.0,2.0,87,0.00,,,0.00,Wunderground v.1.15,2013-02-10 13:32:00,
2013-02-10 08:37:00,24.2,20.9,30.09,NNE,17,5.0,5.0,87,0.00,,,0.00,Wunderground v.1.15,2013-02-10 13:37:00,
2013-02-10 08:42:00,24.3,21.0,30.07,NNE,33,1.0,2.0,87,0.00,,,0.00,Wunderground v.1.15,2013-02-10 13:42:00,
2013-02-10 08:47:00,24.4,21.1,30.07,East,96,1.0,4.0,87,0.00,,,0.00,Wunderground v.1.15,2013-02-10 13:47:00,
2013-02-10 08:52:00,24.6,21.3,30.07,NE,34,0.0,1.0,87,0.00,,,0.00,Wunderground v.1.15,2013-02-10 13:52:00,
2013-02-10 08:57:00,24.8,21.5,30.08,NE,35,0.0,1.0,87,0.00,,,0.00,Wunderground v.1.15,2013-02-10 13:57:00,
2013-02-10 09:02:00,25.1,21.8,30.08,NE,35,0.0,0.0,87,0.00,,,0.00,Wunderground v.1.15,2013-02-10 14:02:00,
2013-02-10 09:07:00,25.4,22.1,30.08,NE,36,1.0,4.0,87,0.00,,,0.00,Wunderground v.1.15,2013-02-10 14:07:00,
2013-02-10 09:12:00,25.7,22.4,30.07,NE,35,0.0,2.0,87,0.00,,,0.00,Wunderground v.1.15,2013-02-10 14:12:00,
2013-02-10 09:17:00,26.0,22.4,30.07,NE,38,0.0,4.0,86,0.00,,,0.00,Wunderground v.1.15,2013-02-10 14:17:00,
2013-02-10 09:23:00,26.3,22.7,30.07,WSW,238,0.0,2.0,86,0.00,,,0.00,Wunderground v.1.15,2013-02-10 14:23:00,
2013-02-10 09:28:00,26.6,22.7,30.08,WNW,287,0.0,5.0,85,0.00,,,0.00,Wunderground v.1.15,2013-02-10 14:28:00,
2013-02-10 09:33:00,26.9,23.0,30.08,NE,34,0.0,2.0,85,0.00,,,0.00,Wunderground v.1.15,2013-02-10 14:33:00,
2013-02-10 09:38:00,27.2,23.0,30.08,NW,311,0.0,5.0,84,0.00,,,0.00,Wunderground v.1.15,2013-02-10 14:38:00,
2013-02-10 09:43:00,27.5,23.3,30.08,NW,321,0.0,2.0,84,0.00,,,0.00,Wunderground v.1.15,2013-02-10 14:43:00,
2013-02-10 09:48:00,27.9,23.4,30.08,North,360,3.0,4.0,83,0.00,,,0.00,Wunderground v.1.15,2013-02-10 14:48:00,
2013-02-10 09:53:00,28.2,23.7,30.08,NNE,17,0.0,1.0,83,0.00,,,0.00,Wunderground v.1.15,2013-02-10 14:53:00,
2013-02-10 09:58:00,28.6,23.8,30.07,ENE,61,3.0,4.0,82,0.00,,,0.00,Wunderground v.1.15,2013-02-10 14:58:00,
2013-02-10 10:03:00,28.8,23.7,30.07,NE,36,0.0,3.0,81,0.00,,,0.00,Wunderground v.1.15,2013-02-10 15:03:00,
2013-02-10 10:08:00,29.0,23.9,30.07,NNW,340,0.0,4.0,81,0.00,,,0.00,Wunderground v.1.15,2013-02-10 15:08:00,
2013-02-10 10:13:00,29.1,23.7,30.07,NNW,340,0.0,4.0,80,0.00,,,0.00,Wunderground v.1.15,2013-02-10 15:13:00,
2013-02-10 10:18:00,29.2,23.8,30.07,NE,41,0.0,5.0,80,0.00,,,0.00,Wunderground v.1.15,2013-02-10 15:18:00,
2013-02-10 10:23:00,29.3,23.9,30.07,North,360,0.0,4.0,80,0.00,,,0.00,Wunderground v.1.15,2013-02-10 15:23:00,
2013-02-10 10:28:00,29.5,23.8,30.06,NNE,25,2.0,5.0,79,0.00,,,0.00,Wunderground v.1.15,2013-02-10 15:28:00,
2013-02-10 10:33:00,29.7,24.0,30.06,NE,41,3.0,6.0,79,0.00,,,0.00,Wunderground v.1.15,2013-02-10 15:33:00,
2013-02-10 10:38:00,30.0,24.3,30.06,ENE,57,0.0,6.0,79,0.00,,,0.00,Wunderground v.1.15,2013-02-10 15:38:00,
2013-02-10 10:43:00,30.2,24.5,30.06,NE,55,4.0,4.0,79,0.00,,,0.00,Wunderground v.1.15,2013-02-10 15:43:00,
2013-02-10 10:48:00,30.4,24.4,30.06,NNE,27,2.0,6.0,78,0.00,,,0.00,Wunderground v.1.15,2013-02-10 15:48:00,
2013-02-10 11:04:00,31.2,24.8,30.05,ENE,74,0.0,5.0,77,0.00,,,0.00,Wunderground v.1.15,2013-02-10 16:04:00,
2013-02-10 11:09:00,31.5,25.1,30.05,NNE,28,0.0,6.0,77,0.00,,,0.00,Wunderground v.1.15,2013-02-10 16:09:00,
2013-02-10 11:14:00,32.0,25.3,30.05,East,84,0.0,6.0,76,0.00,,,0.00,Wunderground v.1.15,2013-02-10 16:14:00,
2013-02-10 11:19:00,32.2,25.2,30.05,NE,38,1.0,6.0,75,0.00,,,0.00,Wunderground v.1.15,2013-02-10 16:19:00,
2013-02-10 11:24:00,32.5,25.5,30.05,NE,36,2.0,4.0,75,0.00,,,0.00,Wunderground v.1.15,2013-02-10 16:24:00,
2013-02-10 11:29:00,32.8,25.7,30.05,SSE,155,0.0,6.0,75,0.00,,,0.00,Wunderground v.1.15,2013-02-10 16:29:00,
2013-02-10 11:34:00,33.3,25.9,30.05,NE,49,0.0,5.0,74,0.00,,,0.00,Wunderground v.1.15,2013-02-10 16:34:00,
2013-02-10 11:39:00,33.5,25.8,30.04,SE,129,0.0,5.0,73,0.00,,,0.00,Wunderground v.1.15,2013-02-10 16:39:00,
2013-02-10 11:45:00,33.5,25.4,30.04,East,88,0.0,5.0,72,0.00,,,0.00,Wunderground v.1.15,2013-02-10 16:45:00,
2013-02-10 11:50:00,33.6,25.9,30.04,WNW,302,1.0,5.0,73,0.00,,,0.00,Wunderground v.1.15,2013-02-10 16:50:00,
2013-02-10 11:55:00,33.8,26.1,30.03,ENE,63,0.0,2.0,73,0.00,,,0.00,Wunderground v.1.15,2013-02-10 16:55:00,
2013-02-10 12:00:00,33.9,25.8,30.03,NE,38,0.0,3.0,72,0.00,,,0.00,Wunderground v.1.15,2013-02-10 17:00:00,
2013-02-10 12:05:00,34.1,26.0,30.03,NE,44,3.0,5.0,72,0.00,,,0.00,Wunderground v.1.15,2013-02-10 17:05:00,
2013-02-10 12:10:00,34.1,26.0,30.01,NE,46,0.0,6.0,72,0.00,,,0.00,Wunderground v.1.15,2013-02-10 17:10:00,
2013-02-10 12:15:00,34.2,26.1,30.01,NNE,14,4.0,5.0,72,0.00,,,0.00,Wunderground v.1.15,2013-02-10 17:15:00,
2013-02-10 12:20:00,34.4,26.3,30.01,NNE,22,0.0,6.0,72,0.00,,,0.00,Wunderground v.1.15,2013-02-10 17:20:00,
2013-02-10 12:25:00,34.7,26.3,29.99,NE,51,3.0,5.0,71,0.00,,,0.00,Wunderground v.1.15,2013-02-10 17:25:00,
2013-02-10 12:30:00,35.0,26.5,29.99,NE,40,0.0,5.0,71,0.00,,,0.00,Wunderground v.1.15,2013-02-10 17:30:00,
2013-02-10 12:35:00,35.5,27.0,29.99,ENE,67,0.0,2.0,71,0.00,,,0.00,Wunderground v.1.15,2013-02-10 17:35:00,
2013-02-10 12:40:00,36.0,27.2,29.97,NE,38,4.0,6.0,70,0.00,,,0.00,Wunderground v.1.15,2013-02-10 17:40:00,
2013-02-10 12:45:00,36.0,26.8,29.97,NE,48,2.0,6.0,69,0.00,,,0.00,Wunderground v.1.15,2013-02-10 17:45:00,
2013-02-10 12:50:00,36.0,26.8,29.97,NE,55,2.0,7.0,69,0.00,,,0.00,Wunderground v.1.15,2013-02-10 17:50:00,
2013-02-10 12:55:00,36.0,26.8,29.95,NE,36,0.0,6.0,69,0.00,,,0.00,Wunderground v.1.15,2013-02-10 17:55:00,
2013-02-10 13:00:00,36.3,27.1,29.95,NE,34,1.0,6.0,69,0.00,,,0.00,Wunderground v.1.15,2013-02-10 18:00:00,
2013-02-10 13:05:00,36.5,27.3,29.95,ENE,65,0.0,6.0,69,0.00,,,0.00,Wunderground v.1.15,2013-02-10 18:05:00,
2013-02-10 13:10:00,36.8,27.6,29.95,ENE,61,0.0,6.0,69,0.00,,,0.00,Wunderground v.1.15,2013-02-10 18:10:00,
2013-02-10 13:15:00,37.2,27.6,29.95,ENE,65,0.0,4.0,68,0.00,,,0.00,Wunderground v.1.15,2013-02-10 18:15:00,
2013-02-10 13:20:00,37.3,27.3,29.95,East,80,2.0,6.0,67,0.00,,,0.00,Wunderground v.1.15,2013-02-10 18:20:00,
2013-02-10 13:25:00,37.4,27.4,29.94,NE,34,4.0,5.0,67,0.00,,,0.00,Wunderground v.1.15,2013-02-10 18:25:00,
2013-02-10 13:30:00,37.6,27.6,29.94,ENE,70,5.0,5.0,67,0.00,,,0.00,Wunderground v.1.15,2013-02-10 18:30:00,
2013-02-10 13:35:00,37.5,27.2,29.94,North,355,2.0,6.0,66,0.00,,,0.00,Wunderground v.1.15,2013-02-10 18:35:00,
2013-02-10 13:40:00,37.6,27.6,29.94,NNE,13,0.0,6.0,67,0.00,,,0.00,Wunderground v.1.15,2013-02-10 18:40:00,
2013-02-10 13:45:00,37.6,27.6,29.94,NE,53,5.0,7.0,67,0.00,,,0.00,Wunderground v.1.15,2013-02-10 18:45:00,
2013-02-10 13:50:00,37.7,27.7,29.94,NNE,22,0.0,7.0,67,0.00,,,0.00,Wunderground v.1.15,2013-02-10 18:50:00,
2013-02-10 13:55:00,37.7,27.7,29.93,NNE,27,1.0,2.0,67,0.00,,,0.01,Wunderground v.1.15,2013-02-10 18:55:00,
2013-02-10 14:00:00,37.8,28.2,29.93,ENE,57,1.0,4.0,68,0.00,,,0.01,Wunderground v.1.15,2013-02-10 19:00:00,
2013-02-10 14:05:00,37.8,28.2,29.93,NNE,17,0.0,2.0,68,0.00,,,0.01,Wunderground v.1.15,2013-02-10 19:05:00,
2013-02-10 14:11:00,37.8,28.2,29.93,North,9,0.0,0.0,68,0.00,,,0.01,Wunderground v.1.15,2013-02-10 19:11:00,
2013-02-10 14:16:00,37.9,28.3,29.93,NNE,13,0.0,4.0,68,0.00,,,0.01,Wunderground v.1.15,2013-02-10 19:16:00,
2013-02-10 14:21:00,37.8,28.2,29.93,NNE,17,1.0,1.0,68,0.00,,,0.02,Wunderground v.1.15,2013-02-10 19:21:00,
2013-02-10 14:26:00,37.5,27.9,29.92,NE,56,2.0,6.0,68,0.00,,,0.02,Wunderground v.1.15,2013-02-10 19:26:00,
2013-02-10 14:31:00,37.3,28.1,29.92,NE,56,2.0,2.0,69,0.00,,,0.02,Wunderground v.1.15,2013-02-10 19:31:00,
2013-02-10 14:36:00,37.3,28.1,29.92,NNE,30,2.0,4.0,69,0.00,,,0.02,Wunderground v.1.15,2013-02-10 19:36:00,
2013-02-10 14:41:00,37.5,28.6,29.90,NE,46,0.0,1.0,70,0.00,,,0.02,Wunderground v.1.15,2013-02-10 19:41:00,
2013-02-10 14:46:00,37.6,28.7,29.90,NE,40,0.0,7.0,70,0.00,,,0.03,Wunderground v.1.15,2013-02-10 19:46:00,
2013-02-10 14:51:00,37.6,28.7,29.90,West,273,1.0,4.0,70,0.00,,,0.03,Wunderground v.1.15,2013-02-10 19:51:00,
2013-02-10 14:56:00,37.7,28.8,29.88,ESE,115,2.0,6.0,70,0.00,,,0.03,Wunderground v.1.15,2013-02-10 19:56:00,
2013-02-10 15:01:00,37.7,28.8,29.88,NNE,30,0.0,2.0,70,0.05,,,0.04,Wunderground v.1.15,2013-02-10 20:01:00,
2013-02-10 15:06:00,37.7,29.1,29.88,NE,42,0.0,3.0,71,0.05,,,0.04,Wunderground v.1.15,2013-02-10 20:06:00,
2013-02-10 15:11:00,37.7,29.1,29.86,ENE,61,0.0,2.0,71,0.04,,,0.04,Wunderground v.1.15,2013-02-10 20:11:00,
2013-02-10 15:16:00,37.7,29.1,29.86,North,10,0.0,2.0,71,0.00,,,0.04,Wunderground v.1.15,2013-02-10 20:16:00,
2013-02-10 15:21:00,37.7,29.1,29.86,NE,34,0.0,5.0,71,0.00,,,0.05,Wunderground v.1.15,2013-02-10 20:21:00,
2013-02-10 15:26:00,37.7,29.1,29.86,NE,55,0.0,5.0,71,0.00,,,0.05,Wunderground v.1.15,2013-02-10 20:26:00,
2013-02-10 15:31:00,37.7,29.1,29.86,NNE,16,0.0,1.0,71,0.00,,,0.05,Wunderground v.1.15,2013-02-10 20:31:00,
2013-02-10 15:36:00,37.7,29.1,29.86,East,96,0.0,4.0,71,0.00,,,0.05,Wunderground v.1.15,2013-02-10 20:36:00,
2013-02-10 15:41:00,37.8,29.2,29.85,ENE,57,1.0,3.0,71,0.00,,,0.05,Wunderground v.1.15,2013-02-10 20:41:00,
2013-02-10 15:46:00,37.8,29.6,29.85,NE,54,2.0,5.0,72,0.00,,,0.05,Wunderground v.1.15,2013-02-10 20:46:00,
2013-02-10 15:51:00,37.8,29.6,29.85,NNW,342,1.0,3.0,72,0.00,,,0.05,Wunderground v.1.15,2013-02-10 20:51:00,
2013-02-10 15:56:00,37.8,29.6,29.85,WNW,292,2.0,4.0,72,0.00,,,0.06,Wunderground v.1.15,2013-02-10 20:56:00,
2013-02-10 16:01:00,37.8,29.6,29.85,ESE,109,1.0,2.0,72,0.00,,,0.06,Wunderground v.1.15,2013-02-10 21:01:00,
2013-02-10 16:06:00,37.7,29.8,29.85,NE,52,0.0,6.0,73,0.00,,,0.06,Wunderground v.1.15,2013-02-10 21:06:00,
2013-02-10 16:11:00,37.6,29.7,29.85,NE,38,0.0,1.0,73,0.00,,,0.06,Wunderground v.1.15,2013-02-10 21:11:00,
2013-02-10 16:16:00,37.5,29.6,29.85,North,9,2.0,6.0,73,0.00,,,0.06,Wunderground v.1.15,2013-02-10 21:16:00,
2013-02-10 16:21:00,37.5,30.0,29.85,NNE,31,0.0,4.0,74,0.00,,,0.06,Wunderground v.1.15,2013-02-10 21:21:00,
2013-02-10 16:26:00,37.4,29.9,29.83,NE,42,0.0,5.0,74,0.00,,,0.06,Wunderground v.1.15,2013-02-10 21:26:00,
2013-02-10 16:31:00,37.4,30.2,29.83,NE,42,0.0,1.0,75,0.00,,,0.06,Wunderground v.1.15,2013-02-10 21:31:00,
2013-02-10 16:36:00,37.4,30.2,29.83,NE,34,0.0,6.0,75,0.00,,,0.06,Wunderground v.1.15,2013-02-10 21:36:00,
2013-02-10 16:41:00,37.4,30.2,29.83,NE,36,0.0,2.0,75,0.00,,,0.06,Wunderground v.1.15,2013-02-10 21:41:00,
2013-02-10 16:46:00,37.3,30.4,29.83,NE,38,1.0,6.0,76,0.00,,,0.06,Wunderground v.1.15,2013-02-10 21:46:00,
2013-02-10 16:51:00,37.2,30.3,29.83,NE,39,1.0,5.0,76,0.00,,,0.06,Wunderground v.1.15,2013-02-10 21:51:00,
2013-02-10 16:56:00,37.1,30.2,29.81,NE,35,0.0,5.0,76,0.00,,,0.06,Wunderground v.1.15,2013-02-10 21:56:00,
2013-02-10 17:01:00,37.1,30.6,29.81,NNE,24,0.0,2.0,77,0.00,,,0.06,Wunderground v.1.15,2013-02-10 22:01:00,
2013-02-10 17:06:00,37.1,30.6,29.81,ENE,57,6.0,8.0,77,0.00,,,0.06,Wunderground v.1.15,2013-02-10 22:06:00,
2013-02-10 17:11:00,37.0,30.5,29.80,NNE,29,0.0,5.0,77,0.00,,,0.06,Wunderground v.1.15,2013-02-10 22:11:00,
2013-02-10 17:16:00,37.0,30.5,29.80,NNE,27,3.0,7.0,77,0.00,,,0.07,Wunderground v.1.15,2013-02-10 22:16:00,
2013-02-10 17:21:00,37.1,30.6,29.80,North,11,0.0,3.0,77,0.00,,,0.07,Wunderground v.1.15,2013-02-10 22:21:00,
2013-02-10 17:26:00,37.1,30.6,29.79,NE,51,0.0,6.0,77,0.00,,,0.07,Wunderground v.1.15,2013-02-10 22:26:00,
2013-02-10 17:31:00,37.2,30.7,29.79,NNE,20,5.0,7.0,77,0.00,,,0.07,Wunderground v.1.15,2013-02-10 22:31:00,
2013-02-10 17:36:00,37.3,30.4,29.79,NE,42,1.0,7.0,76,0.00,,,0.07,Wunderground v.1.15,2013-02-10 22:36:00,
2013-02-10 17:41:00,37.5,30.6,29.78,North,360,3.0,5.0,76,0.00,,,0.07,Wunderground v.1.15,2013-02-10 22:41:00,
2013-02-10 17:47:00,37.5,30.6,29.78,NNE,31,2.0,6.0,76,0.00,,,0.07,Wunderground v.1.15,2013-02-10 22:47:00,
2013-02-10 17:52:00,37.6,30.4,29.78,NE,44,5.0,5.0,75,0.00,,,0.07,Wunderground v.1.15,2013-02-10 22:52:00,
2013-02-10 17:57:00,37.6,30.7,29.79,NNE,29,0.0,5.0,76,0.00,,,0.07,Wunderground v.1.15,2013-02-10 22:57:00,
2013-02-10 18:02:00,37.5,30.6,29.79,ENE,63,2.0,5.0,76,0.00,,,0.07,Wunderground v.1.15,2013-02-10 23:02:00,
2013-02-10 18:07:00,37.3,30.7,29.79,NE,52,0.0,6.0,77,0.00,,,0.07,Wunderground v.1.15,2013-02-10 23:07:00,
2013-02-10 18:12:00,37.1,31.2,29.78,NE,34,2.0,5.0,79,0.00,,,0.08,Wunderground v.1.15,2013-02-10 23:12:00,
2013-02-10 18:17:00,36.9,31.6,29.78,NE,53,5.0,8.0,81,0.00,,,0.08,Wunderground v.1.15,2013-02-10 23:17:00,
2013-02-10 18:22:00,36.5,31.8,29.78,WNW,287,2.0,5.0,83,0.17,,,0.10,Wunderground v.1.15,2013-02-10 23:22:00,
2013-02-10 18:27:00,36.2,32.1,29.79,NE,34,1.0,5.0,85,0.11,,,0.10,Wunderground v.1.15,2013-02-10 23:27:00,
2013-02-10 18:32:00,36.1,32.3,29.79,NNW,335,0.0,3.0,86,0.06,,,0.10,Wunderground v.1.15,2013-02-10 23:32:00,
2013-02-10 18:37:00,35.9,32.4,29.79,ENE,69,2.0,5.0,87,0.04,,,0.11,Wunderground v.1.15,2013-02-10 23:37:00,
2013-02-10 18:42:00,35.9,32.7,29.76,ENE,69,1.0,8.0,88,0.04,,,0.11,Wunderground v.1.15,2013-02-10 23:42:00,
2013-02-10 18:47:00,35.9,33.0,29.76,NE,44,0.0,8.0,89,0.04,,,0.11,Wunderground v.1.15,2013-02-10 23:47:00,
2013-02-10 18:52:00,36.1,33.2,29.76,NE,42,1.0,7.0,89,0.04,,,0.11,Wunderground v.1.15,2013-02-10 23:52:00,
2013-02-10 18:57:00,36.1,33.2,29.76,NE,36,1.0,8.0,89,0.00,,,0.12,Wunderground v.1.15,2013-02-10 23:57:00,
2013-02-10 19:02:00,36.1,33.2,29.76,South,176,0.0,5.0,89,0.00,,,0.12,Wunderground v.1.15,2013-02-11 00:02:00,
2013-02-10 19:07:00,36.2,33.3,29.76,NNE,26,0.0,7.0,89,0.00,,,0.12,Wunderground v.1.15,2013-02-11 00:07:00,
2013-02-10 19:12:00,36.2,33.5,29.75,NE,46,1.0,5.0,90,0.00,,,0.12,Wunderground v.1.15,2013-02-11 00:12:00,
2013-02-10 19:17:00,36.2,33.5,29.75,NE,45,0.0,5.0,90,0.00,,,0.12,Wunderground v.1.15,2013-02-11 00:17:00,
2013-02-10 19:23:00,36.2,33.5,29.75,ENE,63,1.0,2.0,90,0.00,,,0.12,Wunderground v.1.15,2013-02-11 00:23:00,
2013-02-10 19:28:00,36.3,33.6,29.76,North,11,0.0,5.0,90,0.00,,,0.12,Wunderground v.1.15,2013-02-11 00:28:00,
2013-02-10 19:33:00,36.2,33.3,29.76,NNW,331,3.0,4.0,89,0.00,,,0.12,Wunderground v.1.15,2013-02-11 00:33:00,
2013-02-10 19:38:00,36.3,33.4,29.76,ENE,72,1.0,6.0,89,0.00,,,0.12,Wunderground v.1.15,2013-02-11 00:38:00,
2013-02-10 19:43:00,36.3,33.4,29.75,NE,51,6.0,6.0,89,0.00,,,0.12,Wunderground v.1.15,2013-02-11 00:43:00,
2013-02-10 19:48:00,36.6,33.7,29.75,North,355,1.0,11.0,89,0.00,,,0.12,Wunderground v.1.15,2013-02-11 00:48:00,
2013-02-10 19:53:00,37.0,34.1,29.75,NNE,22,2.0,3.0,89,0.00,,,0.12,Wunderground v.1.15,2013-02-11 00:53:00,
2013-02-10 19:58:00,37.1,33.9,29.74,NE,40,4.0,6.0,88,0.00,,,0.13,Wunderground v.1.15,2013-02-11 00:58:00,
2013-02-10 20:03:00,37.0,33.8,29.74,NNW,331,5.0,6.0,88,0.00,,,0.13,Wunderground v.1.15,2013-02-11 01:03:00,
2013-02-10 20:08:00,36.7,33.8,29.74,NE,46,1.0,6.0,89,0.00,,,0.13,Wunderground v.1.15,2013-02-11 01:08:00,
2013-02-10 20:13:00,36.4,33.7,29.71,ESE,117,3.0,5.0,90,0.00,,,0.13,Wunderground v.1.15,2013-02-11 01:13:00,
2013-02-10 20:18:00,36.4,34.0,29.71,ENE,69,3.0,7.0,91,0.00,,,0.14,Wunderground v.1.15,2013-02-11 01:18:00,
2013-02-10 20:23:00,36.3,33.9,29.71,NNE,32,2.0,5.0,91,0.00,,,0.14,Wunderground v.1.15,2013-02-11 01:23:00,
2013-02-10 20:28:00,36.3,33.9,29.69,North,11,1.0,7.0,91,0.00,,,0.14,Wunderground v.1.15,2013-02-11 01:28:00,
2013-02-10 20:33:00,36.3,33.9,29.69,NNE,19,4.0,9.0,91,0.00,,,0.14,Wunderground v.1.15,2013-02-11 01:33:00,
2013-02-10 20:38:00,36.4,34.3,29.69,NE,43,3.0,9.0,92,0.00,,,0.14,Wunderground v.1.15,2013-02-11 01:38:00,
2013-02-10 20:43:00,36.4,34.3,29.69,ENE,57,0.0,2.0,92,0.00,,,0.14,Wunderground v.1.15,2013-02-11 01:43:00,
2013-02-10 20:48:00,36.3,34.2,29.69,NNE,18,4.0,6.0,92,0.00,,,0.14,Wunderground v.1.15,2013-02-11 01:48:00,
2013-02-10 20:53:00,36.3,34.2,29.69,ESE,109,2.0,9.0,92,0.00,,,0.14,Wunderground v.1.15,2013-02-11 01:53:00,
2013-02-10 20:58:00,36.3,34.2,29.68,ESE,105,2.0,9.0,92,0.00,,,0.14,Wunderground v.1.15,2013-02-11 01:58:00,
2013-02-10 21:03:00,36.3,34.2,29.68,NE,55,1.0,6.0,92,0.00,,,0.14,Wunderground v.1.15,2013-02-11 02:03:00,
2013-02-10 21:08:00,36.5,34.7,29.68,ENE,76,0.0,8.0,93,0.00,,,0.14,Wunderground v.1.15,2013-02-11 02:08:00,
2013-02-10 21:13:00,36.6,34.8,29.68,ENE,60,1.0,3.0,93,0.00,,,0.15,Wunderground v.1.15,2013-02-11 02:13:00,
2013-02-10 21:18:00,36.7,34.9,29.68,NE,49,0.0,6.0,93,0.11,,,0.15,Wunderground v.1.15,2013-02-11 02:18:00,
2013-02-10 21:23:00,36.8,35.0,29.68,NE,46,1.0,6.0,93,0.11,,,0.16,Wunderground v.1.15,2013-02-11 02:23:00,
2013-02-10 21:28:00,36.9,35.1,29.68,WNW,302,5.0,7.0,93,0.28,,,0.18,Wunderground v.1.15,2013-02-11 02:28:00,
2013-02-10 21:33:00,36.9,34.8,29.68,ENE,78,1.0,5.0,92,0.11,,,0.18,Wunderground v.1.15,2013-02-11 02:33:00,
2013-02-10 21:38:00,37.0,35.2,29.68,NE,46,0.0,8.0,93,0.06,,,0.18,Wunderground v.1.15,2013-02-11 02:38:00,
2013-02-10 21:43:00,37.1,35.0,29.66,ENE,69,1.0,3.0,92,0.04,,,0.18,Wunderground v.1.15,2013-02-11 02:43:00,
2013-02-10 21:48:00,37.2,35.1,29.66,East,84,1.0,7.0,92,0.00,,,0.18,Wunderground v.1.15,2013-02-11 02:48:00,
2013-02-10 21:53:00,37.3,35.2,29.66,SW,223,4.0,9.0,92,0.00,,,0.19,Wunderground v.1.15,2013-02-11 02:53:00,
2013-02-10 21:58:00,37.2,35.1,29.66,East,86,0.0,9.0,92,0.00,,,0.19,Wunderground v.1.15,2013-02-11 02:58:00,
2013-02-10 22:03:00,37.2,35.1,29.66,North,9,1.0,2.0,92,0.00,,,0.19,Wunderground v.1.15,2013-02-11 03:03:00,
2013-02-10 22:08:00,37.2,35.1,29.66,East,81,0.0,6.0,92,0.00,,,0.19,Wunderground v.1.15,2013-02-11 03:08:00,
2013-02-10 22:13:00,37.2,35.1,29.65,NE,53,2.0,5.0,92,0.00,,,0.19,Wunderground v.1.15,2013-02-11 03:13:00,
2013-02-10 22:18:00,37.2,35.1,29.65,East,89,2.0,7.0,92,0.00,,,0.19,Wunderground v.1.15,2013-02-11 03:18:00,
2013-02-10 22:23:00,37.2,35.1,29.65,ENE,61,1.0,6.0,92,0.00,,,0.19,Wunderground v.1.15,2013-02-11 03:23:00,
2013-02-10 22:28:00,37.2,35.1,29.64,ENE,74,5.0,7.0,92,0.00,,,0.19,Wunderground v.1.15,2013-02-11 03:28:00,
2013-02-10 22:33:00,37.1,35.0,29.64,ENE,59,0.0,2.0,92,0.00,,,0.20,Wunderground v.1.15,2013-02-11 03:33:00,
2013-02-10 22:38:00,37.2,35.4,29.64,ESE,105,4.0,6.0,93,0.00,,,0.20,Wunderground v.1.15,2013-02-11 03:38:00,
2013-02-10 22:43:00,37.2,35.4,29.63,SSE,150,0.0,10.0,93,0.00,,,0.20,Wunderground v.1.15,2013-02-11 03:43:00,
2013-02-10 22:48:00,37.2,35.4,29.63,WSW,248,1.0,10.0,93,0.00,,,0.20,Wunderground v.1.15,2013-02-11 03:48:00,
2013-02-10 22:53:00,37.2,35.4,29.63,North,5,0.0,4.0,93,0.00,,,0.20,Wunderground v.1.15,2013-02-11 03:53:00,
2013-02-10 22:58:00,37.2,35.6,29.63,ESE,105,3.0,4.0,94,0.00,,,0.20,Wunderground v.1.15,2013-02-11 03:58:00,
2013-02-10 23:03:00,37.2,35.6,29.63,SW,232,1.0,8.0,94,0.00,,,0.20,Wunderground v.1.15,2013-02-11 04:03:00,
2013-02-10 23:08:00,37.3,35.7,29.63,SE,129,1.0,8.0,94,0.00,,,0.20,Wunderground v.1.15,2013-02-11 04:08:00,
2013-02-10 23:13:00,37.4,35.8,29.62,North,360,0.0,5.0,94,0.00,,,0.20,Wunderground v.1.15,2013-02-11 04:13:00,
2013-02-10 23:18:00,37.6,36.0,29.62,NE,53,0.0,8.0,94,0.00,,,0.20,Wunderground v.1.15,2013-02-11 04:18:00,
2013-02-10 23:23:00,37.7,36.1,29.62,SW,227,1.0,5.0,94,0.00,,,0.20,Wunderground v.1.15,2013-02-11 04:23:00,
2013-02-10 23:29:00,37.8,36.2,29.61,West,269,1.0,5.0,94,0.00,,,0.20,Wunderground v.1.15,2013-02-11 04:29:00,
2013-02-10 23:34:00,37.9,36.3,29.61,ENE,75,0.0,3.0,94,0.00,,,0.20,Wunderground v.1.15,2013-02-11 04:34:00,
2013-02-10 23:39:00,37.9,36.3,29.61,West,275,1.0,3.0,94,0.00,,,0.20,Wunderground v.1.15,2013-02-11 04:39:00,
2013-02-10 23:44:00,38.0,36.4,29.61,WSW,252,1.0,5.0,94,0.00,,,0.20,Wunderground v.1.15,2013-02-11 04:44:00,
2013-02-10 23:49:00,38.2,36.6,29.61,South,180,1.0,5.0,94,0.00,,,0.20,Wunderground v.1.15,2013-02-11 04:49:00,
2013-02-10 23:54:00,38.3,37.0,29.61,NE,54,0.0,6.0,95,0.00,,,0.20,Wunderground v.1.15,2013-02-11 04:54:00,
2013-02-10 23:59:00,38.4,37.1,29.61,NW,309,0.0,6.0,95,0.00,,,0.20,Wunderground v.1.15,2013-02-11 04:59:00,